Time;durP1;ratioP1;P1;durP2;ratioP2;P2;SDS_P1;SDS_P2;PMS_P1;PMS_P2;Temp;Humidity;BMP_temperature;BMP_pressure;BME280_temperature;BME280_humidity;BME280_pressure;Samples;Min_cycle;Max_cycle;Signal;HPM_P1;HPM_P2
2021/09/10 00:02:21;;;;;;;18.50;10.80;;;18.70;99.90;;;;;;4949117;28;20331;-87
2021/09/10 00:04:48;;;;;;;21.67;12.20;;;18.70;99.90;;;;;;4967384;28;20523;-87
2021/09/10 00:07:13;;;;;;;22.30;12.73;;;18.80;99.90;;;;;;4950052;28;20219;-86
2021/09/10 00:09:39;;;;;;;22.20;11.27;;;18.70;99.90;;;;;;4949943;28;20581;-87
2021/09/10 00:12:05;;;;;;;21.73;11.80;;;18.70;99.90;;;;;;4965433;28;20200;-87
2021/09/10 00:14:31;;;;;;;19.23;10.00;;;18.70;99.90;;;;;;4949486;28;20228;-88
2021/09/10 00:16:56;;;;;;;20.40;11.00;;;18.80;99.90;;;;;;4948014;28;20224;-87
2021/09/10 00:19:22;;;;;;;22.20;11.40;;;18.70;99.90;;;;;;4947502;28;20259;-87
2021/09/10 00:21:48;;;;;;;21.80;11.73;;;18.70;99.90;;;;;;4964518;28;20311;-87
2021/09/10 00:24:14;;;;;;;19.47;10.17;;;18.70;99.90;;;;;;4948516;28;20673;-87
2021/09/10 00:26:39;;;;;;;19.20;10.13;;;18.70;99.90;;;;;;4966370;28;20207;-89
2021/09/10 00:29:05;;;;;;;20.87;12.00;;;18.70;99.90;;;;;;4965229;28;20216;-88
2021/09/10 00:31:31;;;;;;;26.40;11.77;;;18.70;99.90;;;;;;4949715;28;20220;-88
2021/09/10 00:33:56;;;;;;;17.67;10.10;;;18.70;99.90;;;;;;4966286;28;20212;-88
2021/09/10 00:36:22;;;;;;;20.63;11.37;;;18.70;99.90;;;;;;4948898;28;20196;-88
2021/09/10 00:38:48;;;;;;;18.33;9.63;;;18.70;99.90;;;;;;4949414;28;20219;-87
2021/09/10 00:41:14;;;;;;;15.53;10.33;;;18.70;99.90;;;;;;4949883;28;20849;-87
2021/09/10 00:43:39;;;;;;;19.70;10.97;;;18.70;99.90;;;;;;4948706;28;20228;-88
2021/09/10 00:46:05;;;;;;;12.53;8.47;;;18.70;99.90;;;;;;4948656;28;20228;-87
2021/09/10 00:48:32;;;;;;;13.63;9.23;;;18.80;99.90;;;;;;4948141;28;20231;-85
2021/09/10 00:50:58;;;;;;;20.13;10.60;;;18.80;99.90;;;;;;4964889;28;20248;-87
2021/09/10 00:53:24;;;;;;;13.33;8.93;;;18.80;99.90;;;;;;4965473;28;20213;-87
2021/09/10 00:55:50;;;;;;;13.47;8.10;;;18.90;99.90;;;;;;4964662;28;20672;-87
2021/09/10 00:58:17;;;;;;;15.23;9.67;;;18.90;99.90;;;;;;4948471;28;20778;-86
2021/09/10 01:00:42;;;;;;;17.33;9.73;;;18.80;99.90;;;;;;4948810;28;20682;-89
2021/09/10 01:03:10;;;;;;;16.23;9.27;;;18.70;99.90;;;;;;4964138;28;20200;-88
2021/09/10 01:05:36;;;;;;;14.17;9.03;;;18.60;99.90;;;;;;4948817;28;20816;-87
2021/09/10 01:08:02;;;;;;;18.23;9.40;;;18.50;99.90;;;;;;4948034;28;20225;-87
2021/09/10 01:10:29;;;;;;;16.00;9.83;;;18.40;99.90;;;;;;4948775;28;20548;-87
2021/09/10 01:12:56;;;;;;;15.50;9.87;;;18.40;99.90;;;;;;4949010;28;20213;-88
2021/09/10 01:15:22;;;;;;;15.67;9.63;;;18.40;99.90;;;;;;4964410;28;20204;-87
2021/09/10 01:17:48;;;;;;;16.83;9.63;;;18.50;99.90;;;;;;4948841;28;20628;-87
2021/09/10 01:20:14;;;;;;;17.90;10.50;;;18.50;99.90;;;;;;4948602;28;20221;-86
2021/09/10 01:22:40;;;;;;;19.60;9.90;;;18.50;99.90;;;;;;4949006;28;20228;-87
2021/09/10 01:25:17;;;;;;;22.17;9.60;;;18.50;99.90;;;;;;4949190;28;20237;-86
2021/09/10 01:27:48;;;;;;;16.23;9.07;;;18.60;99.90;;;;;;4949587;28;20220;-88
2021/09/10 01:30:16;;;;;;;19.03;10.07;;;18.60;99.90;;;;;;4948083;28;20581;-87
2021/09/10 01:32:42;;;;;;;15.67;9.07;;;18.50;99.90;;;;;;4966234;28;20193;-86
2021/09/10 01:35:09;;;;;;;20.50;11.13;;;18.50;99.90;;;;;;4948294;28;20228;-86
2021/09/10 01:37:35;;;;;;;16.77;9.43;;;18.40;99.90;;;;;;4948250;28;20826;-87
2021/09/10 01:40:02;;;;;;;21.13;11.70;;;18.40;99.90;;;;;;4964709;28;20292;-89
2021/09/10 01:42:28;;;;;;;21.07;12.37;;;18.40;99.90;;;;;;4964699;28;20189;-85
2021/09/10 01:44:54;;;;;;;17.80;11.10;;;18.40;99.90;;;;;;4964141;28;20232;-87
2021/09/10 01:47:19;;;;;;;22.77;12.63;;;18.40;99.90;;;;;;4949005;28;20678;-86
2021/09/10 01:49:45;;;;;;;21.20;11.77;;;18.40;99.90;;;;;;4949140;28;20715;-87
2021/09/10 01:52:11;;;;;;;22.63;11.40;;;18.50;99.90;;;;;;4950593;28;20212;-87
2021/09/10 01:54:37;;;;;;;20.17;11.10;;;18.50;99.90;;;;;;4949838;28;20224;-88
2021/09/10 01:57:03;;;;;;;18.53;10.80;;;18.50;99.90;;;;;;4949106;28;20224;-87
2021/09/10 01:59:29;;;;;;;16.30;9.70;;;18.50;99.90;;;;;;4948448;28;20216;-86
2021/09/10 02:01:55;;;;;;;20.50;9.93;;;18.50;99.90;;;;;;4948444;28;20690;-88
2021/09/10 02:04:21;;;;;;;18.73;10.73;;;18.50;99.90;;;;;;4949222;28;20228;-87
2021/09/10 02:06:47;;;;;;;17.70;11.03;;;18.40;99.90;;;;;;4965041;28;20303;-87
2021/09/10 02:09:13;;;;;;;18.63;10.83;;;18.40;99.90;;;;;;4949074;28;20228;-88
2021/09/10 02:11:38;;;;;;;21.43;11.23;;;18.40;99.90;;;;;;4947261;28;20220;-87
2021/09/10 02:14:05;;;;;;;16.80;10.53;;;18.50;99.90;;;;;;4946041;28;20315;-88
2021/09/10 02:16:30;;;;;;;15.67;10.13;;;18.40;99.90;;;;;;4963580;28;20236;-88
2021/09/10 02:18:57;;;;;;;25.70;12.60;;;18.40;99.90;;;;;;4967036;28;20271;-86
2021/09/10 02:21:22;;;;;;;22.17;12.20;;;18.50;99.90;;;;;;4965957;28;20209;-87
2021/09/10 02:23:48;;;;;;;16.90;10.43;;;18.50;99.90;;;;;;4950153;28;20200;-87
2021/09/10 02:26:14;;;;;;;17.17;11.50;;;18.50;99.90;;;;;;4965339;28;20224;-87
2021/09/10 02:28:40;;;;;;;18.27;11.93;;;18.50;99.90;;;;;;4965506;28;20694;-87
2021/09/10 02:31:06;;;;;;;23.83;13.27;;;18.50;99.90;;;;;;4965653;28;20212;-88
2021/09/10 02:33:32;;;;;;;23.00;12.97;;;18.40;99.90;;;;;;4949995;28;20789;-88
2021/09/10 02:35:58;;;;;;;20.30;13.43;;;18.40;99.90;;;;;;4967793;28;20279;-89
2021/09/10 02:38:25;;;;;;;20.57;13.47;;;18.40;99.90;;;;;;4967710;28;20973;-87
2021/09/10 02:40:51;;;;;;;18.30;13.30;;;18.40;99.90;;;;;;4968362;28;20262;-87
2021/09/10 02:43:17;;;;;;;23.67;13.93;;;18.50;99.90;;;;;;4953456;28;20726;-87
2021/09/10 02:45:43;;;;;;;24.83;13.77;;;18.50;99.90;;;;;;4952153;28;20321;-86
2021/09/10 02:48:10;;;;;;;24.27;13.50;;;18.50;99.90;;;;;;4952774;28;20236;-88
2021/09/10 02:50:36;;;;;;;19.60;13.10;;;18.50;99.90;;;;;;4953183;28;20211;-87
2021/09/10 02:53:02;;;;;;;25.57;12.90;;;18.60;99.90;;;;;;4969093;28;20299;-86
2021/09/10 02:55:29;;;;;;;21.93;13.83;;;18.50;99.90;;;;;;4953877;28;20275;-87
2021/09/10 02:57:54;;;;;;;23.37;13.43;;;18.50;99.90;;;;;;4950310;28;20240;-87
2021/09/10 03:00:21;;;;;;;29.47;14.33;;;18.50;99.90;;;;;;4965566;28;20302;-88
2021/09/10 03:02:46;;;;;;;19.47;13.10;;;18.50;99.90;;;;;;4967367;28;20212;-87
2021/09/10 03:05:13;;;;;;;17.67;12.47;;;18.40;99.90;;;;;;4949768;28;20379;-87
2021/09/10 03:07:39;;;;;;;21.53;13.30;;;18.50;99.90;;;;;;4934385;28;20769;-87
2021/09/10 03:10:06;;;;;;;21.03;12.63;;;18.40;99.90;;;;;;4965134;28;20231;-88
2021/09/10 03:12:34;;;;;;;21.70;12.27;;;18.40;99.90;;;;;;4949367;28;20224;-87
2021/09/10 03:14:59;;;;;;;23.63;13.10;;;18.40;99.90;;;;;;4965486;28;20658;-88
2021/09/10 03:17:25;;;;;;;18.70;11.70;;;18.30;99.90;;;;;;4965567;28;20220;-88
2021/09/10 03:19:51;;;;;;;20.80;12.77;;;18.30;99.90;;;;;;4948559;28;20208;-87
2021/09/10 03:22:17;;;;;;;21.27;12.90;;;18.30;99.90;;;;;;4964334;28;20236;-86
2021/09/10 03:24:42;;;;;;;20.10;12.63;;;18.30;99.90;;;;;;4947814;28;20225;-88
2021/09/10 03:27:08;;;;;;;23.97;13.73;;;18.20;99.90;;;;;;4965341;28;20304;-87
2021/09/10 03:29:34;;;;;;;23.90;13.13;;;18.30;99.90;;;;;;4948382;28;20213;-87
2021/09/10 03:31:59;;;;;;;20.53;11.97;;;18.30;99.90;;;;;;4949462;28;20224;-87
2021/09/10 03:34:28;;;;;;;19.90;13.10;;;18.30;99.90;;;;;;4966254;28;21024;-87
2021/09/10 03:36:54;;;;;;;21.43;12.20;;;18.30;99.90;;;;;;4949750;28;20216;-87
2021/09/10 03:39:20;;;;;;;22.77;12.77;;;18.20;99.90;;;;;;4949128;28;20196;-88
2021/09/10 03:41:46;;;;;;;21.60;13.37;;;18.20;99.90;;;;;;4949103;28;20196;-89
2021/09/10 03:44:12;;;;;;;19.53;12.13;;;18.10;99.90;;;;;;4950695;28;20217;-87
2021/09/10 03:46:38;;;;;;;20.33;12.17;;;17.90;99.90;;;;;;4966273;28;20224;-88
2021/09/10 03:49:04;;;;;;;19.73;11.47;;;17.80;99.90;;;;;;4966605;28;20223;-86
2021/09/10 03:51:30;;;;;;;19.53;10.70;;;17.80;99.90;;;;;;4967376;28;20228;-88
2021/09/10 03:53:55;;;;;;;21.73;11.80;;;17.90;99.90;;;;;;4934581;28;20612;-87
2021/09/10 03:56:21;;;;;;;21.73;11.93;;;18.00;99.90;;;;;;4951320;28;20937;-88
2021/09/10 03:58:47;;;;;;;22.77;13.30;;;18.10;99.90;;;;;;4935295;28;20228;-88
2021/09/10 04:01:13;;;;;;;19.63;11.93;;;18.10;99.90;;;;;;4951183;28;20225;-87
2021/09/10 04:03:39;;;;;;;16.43;11.27;;;18.10;99.90;;;;;;4965629;28;20349;-87
2021/09/10 04:06:05;;;;;;;19.70;11.03;;;18.10;99.90;;;;;;4964772;28;21088;-87
2021/09/10 04:08:30;;;;;;;19.80;11.27;;;18.20;99.90;;;;;;4965346;28;20229;-88
2021/09/10 04:10:56;;;;;;;18.90;10.73;;;18.20;99.90;;;;;;4965069;28;20226;-88
2021/09/10 04:13:22;;;;;;;23.10;10.80;;;18.20;99.90;;;;;;4949851;28;20578;-86
2021/09/10 04:15:48;;;;;;;21.43;11.20;;;18.20;99.90;;;;;;4965753;28;20709;-87
2021/09/10 04:18:13;;;;;;;20.90;12.20;;;18.30;99.90;;;;;;4967331;28;20197;-89
2021/09/10 04:20:39;;;;;;;20.50;11.17;;;18.30;99.90;;;;;;4966227;28;20575;-86
2021/09/10 04:23:05;;;;;;;18.70;11.37;;;18.30;99.90;;;;;;4966876;28;20709;-87
2021/09/10 04:25:30;;;;;;;19.53;11.27;;;18.30;99.90;;;;;;4951037;28;20236;-87
2021/09/10 04:27:56;;;;;;;18.67;11.93;;;18.30;99.90;;;;;;4934622;28;20224;-87
2021/09/10 04:30:22;;;;;;;22.47;11.63;;;18.30;99.90;;;;;;4950536;28;20189;-87
2021/09/10 04:32:48;;;;;;;20.87;11.77;;;18.30;99.90;;;;;;4950921;28;20204;-88
2021/09/10 04:35:14;;;;;;;17.53;10.03;;;18.20;99.90;;;;;;4950626;28;20228;-87
2021/09/10 04:37:41;;;;;;;16.80;10.60;;;18.10;99.90;;;;;;4949436;28;20223;-87
2021/09/10 04:40:07;;;;;;;16.00;10.20;;;18.00;99.90;;;;;;4949923;28;20243;-86
2021/09/10 04:42:34;;;;;;;20.27;9.30;;;17.80;99.90;;;;;;4949695;28;20244;-88
2021/09/10 04:45:00;;;;;;;14.77;8.97;;;17.70;99.90;;;;;;4951094;28;20232;-88
2021/09/10 04:47:26;;;;;;;24.57;11.60;;;17.70;99.90;;;;;;4963537;28;20228;-88
2021/09/10 04:49:52;;;;;;;16.57;10.93;;;17.70;99.90;;;;;;4947420;28;20220;-88
2021/09/10 04:52:18;;;;;;;18.30;11.83;;;17.80;99.90;;;;;;4949550;28;20221;-88
2021/09/10 04:54:44;;;;;;;17.73;10.23;;;17.90;99.90;;;;;;4948396;28;20231;-88
2021/09/10 04:57:10;;;;;;;21.00;12.10;;;18.00;99.90;;;;;;4964115;28;20249;-87
2021/09/10 04:59:35;;;;;;;19.20;11.30;;;18.00;99.90;;;;;;4965434;28;20248;-87
2021/09/10 05:02:01;;;;;;;22.70;11.53;;;18.10;99.90;;;;;;4962795;28;20221;-87
2021/09/10 05:04:27;;;;;;;17.53;10.27;;;18.10;99.90;;;;;;4947127;28;20213;-87
2021/09/10 05:06:53;;;;;;;22.83;11.20;;;18.10;99.90;;;;;;4946555;28;20607;-87
2021/09/10 05:09:19;;;;;;;20.17;10.87;;;18.00;99.90;;;;;;4947361;28;20244;-88
2021/09/10 05:11:45;;;;;;;16.13;9.60;;;17.80;99.90;;;;;;4965945;28;20196;-87
2021/09/10 05:14:11;;;;;;;19.87;10.03;;;17.70;99.90;;;;;;4948750;28;20229;-86
2021/09/10 05:16:37;;;;;;;15.03;9.63;;;17.60;99.90;;;;;;4947790;28;20260;-87
2021/09/10 05:19:03;;;;;;;17.10;10.87;;;17.50;99.90;;;;;;4948615;28;20243;-88
2021/09/10 05:21:29;;;;;;;16.90;10.93;;;17.50;99.90;;;;;;4964523;28;20311;-86
2021/09/10 05:23:55;;;;;;;17.17;10.03;;;17.40;99.90;;;;;;4965779;28;20201;-86
2021/09/10 05:26:21;;;;;;;14.57;8.83;;;17.30;99.90;;;;;;4948207;28;21034;-87
2021/09/10 05:28:47;;;;;;;15.40;10.30;;;17.30;99.90;;;;;;4964007;28;20220;-86
2021/09/10 05:31:13;;;;;;;17.20;9.93;;;17.30;99.90;;;;;;4948075;28;20218;-88
2021/09/10 05:33:38;;;;;;;18.77;10.17;;;17.20;99.90;;;;;;4948333;28;20224;-86
2021/09/10 05:36:04;;;;;;;19.83;11.50;;;17.30;99.90;;;;;;4949484;28;20189;-87
2021/09/10 05:38:30;;;;;;;24.07;13.83;;;17.40;99.90;;;;;;4948801;28;20224;-89
2021/09/10 05:40:56;;;;;;;25.50;12.83;;;17.50;99.90;;;;;;4948236;28;20268;-87
2021/09/10 05:43:22;;;;;;;23.60;13.43;;;17.60;99.90;;;;;;4948070;28;20324;-86
2021/09/10 05:45:48;;;;;;;22.27;12.47;;;17.70;99.90;;;;;;4943919;28;20602;-88
2021/09/10 05:48:18;;;;;;;25.73;13.40;;;17.80;99.90;;;;;;4960898;28;20228;-88
2021/09/10 05:50:49;;;;;;;34.33;14.10;;;17.90;99.90;;;;;;4961008;28;20315;-87
2021/09/10 05:53:16;;;;;;;22.63;13.20;;;18.00;99.90;;;;;;4961947;28;20213;-87
2021/09/10 05:55:42;;;;;;;21.77;10.97;;;18.00;99.90;;;;;;4960748;28;20329;-86
2021/09/10 05:58:09;;;;;;;23.77;12.67;;;18.00;99.90;;;;;;4960955;28;20217;-89
2021/09/10 06:00:36;;;;;;;28.40;14.00;;;18.10;99.90;;;;;;4945244;28;20217;-87
2021/09/10 06:03:03;;;;;;;29.50;13.23;;;18.10;99.90;;;;;;4946138;28;20628;-88
2021/09/10 06:05:29;;;;;;;20.63;12.97;;;18.20;99.90;;;;;;4945378;28;20555;-87
2021/09/10 06:07:55;;;;;;;25.40;14.10;;;18.30;99.90;;;;;;4945378;28;20229;-90
2021/09/10 06:10:21;;;;;;;21.80;13.03;;;18.50;99.90;;;;;;4945762;28;21001;-89
2021/09/10 06:12:48;;;;;;;25.00;13.20;;;18.80;99.90;;;;;;4945099;28;20291;-91
2021/09/10 06:15:14;;;;;;;28.07;13.63;;;19.00;99.90;;;;;;4945250;28;20193;-91
2021/09/10 06:17:41;;;;;;;24.23;13.63;;;19.20;99.90;;;;;;4962986;28;20201;-92
2021/09/10 06:20:07;;;;;;;26.13;13.97;;;19.40;99.90;;;;;;4945887;28;20239;-91
2021/09/10 06:22:33;;;;;;;25.93;13.93;;;19.50;99.90;;;;;;4961343;28;20217;-89
2021/09/10 06:24:59;;;;;;;22.70;13.73;;;19.50;99.90;;;;;;4961621;28;20286;-90
2021/09/10 06:27:26;;;;;;;23.90;13.07;;;19.50;99.90;;;;;;4946670;28;20193;-91
2021/09/10 06:29:51;;;;;;;22.83;12.43;;;19.70;99.90;;;;;;4947145;28;20196;-90
2021/09/10 06:32:17;;;;;;;24.60;14.63;;;19.70;99.90;;;;;;4946535;28;20985;-94
2021/09/10 06:34:43;;;;;;;23.20;14.10;;;19.80;99.90;;;;;;4915266;29;20225;-90
2021/09/10 06:37:09;;;;;;;21.30;14.30;;;19.90;99.90;;;;;;4946862;28;20228;-90
2021/09/10 06:39:35;;;;;;;30.80;15.33;;;20.00;99.90;;;;;;4946969;28;20276;-89
2021/09/10 06:42:01;;;;;;;23.17;14.47;;;20.10;99.90;;;;;;4961683;28;20204;-90
2021/09/10 06:44:27;;;;;;;23.80;15.10;;;20.60;99.90;;;;;;4947044;28;20268;-87
2021/09/10 06:46:53;;;;;;;24.30;14.47;;;21.40;99.90;;;;;;4965913;28;20699;-88
2021/09/10 06:49:19;;;;;;;23.57;13.80;;;22.00;99.90;;;;;;4948260;28;20240;-88
2021/09/10 06:51:45;;;;;;;18.77;12.77;;;22.20;99.90;;;;;;4948382;28;20248;-90
2021/09/10 06:54:11;;;;;;;21.73;12.17;;;22.00;99.90;;;;;;4948618;28;20220;-91
2021/09/10 06:56:36;;;;;;;21.57;14.87;;;21.70;99.90;;;;;;4949211;28;20610;-88
2021/09/10 06:59:03;;;;;;;26.27;13.77;;;21.40;99.90;;;;;;4948173;28;20228;-89
2021/09/10 07:01:29;;;;;;;22.83;13.90;;;21.40;99.90;;;;;;4946640;28;20666;-89
2021/09/10 07:03:55;;;;;;;25.43;14.57;;;21.60;99.90;;;;;;4949974;28;20224;-91
2021/09/10 07:06:21;;;;;;;23.27;14.07;;;22.40;99.90;;;;;;4967442;28;20279;-88
2021/09/10 07:08:47;;;;;;;23.63;14.27;;;23.40;99.90;;;;;;4951670;28;20232;-90
2021/09/10 07:11:13;;;;;;;22.42;14.00;;;24.00;99.90;;;;;;4950566;28;20224;-88
2021/09/10 07:13:39;;;;;;;23.15;13.05;;;24.80;99.90;;;;;;4950904;28;20296;-88
2021/09/10 07:16:05;;;;;;;22.42;13.45;;;24.80;99.90;;;;;;4950878;28;20697;-90
2021/09/10 07:18:31;;;;;;;20.23;13.07;;;24.90;99.90;;;;;;4949270;28;20440;-91
2021/09/10 07:20:57;;;;;;;19.77;12.77;;;25.20;99.90;;;;;;4967635;28;20732;-89
2021/09/10 07:23:23;;;;;;;21.20;12.98;;;24.90;99.90;;;;;;4948924;28;20216;-87
2021/09/10 07:25:49;;;;;;;23.67;12.57;;;26.00;99.90;;;;;;4965252;28;21121;-86
2021/09/10 07:28:15;;;;;;;22.30;13.85;;;26.00;99.90;;;;;;4950159;28;20212;-88
2021/09/10 07:30:41;;;;;;;21.83;13.55;;;25.20;99.90;;;;;;4950268;28;20224;-87
2021/09/10 07:33:07;;;;;;;22.83;14.32;;;25.20;99.90;;;;;;4951392;28;20189;-88
2021/09/10 07:35:32;;;;;;;21.13;13.90;;;25.20;99.90;;;;;;4967048;28;20634;-89
2021/09/10 07:37:58;;;;;;;23.10;13.57;;;24.70;99.90;;;;;;4950009;28;20212;-88
2021/09/10 07:40:24;;;;;;;21.90;13.68;;;24.10;99.90;;;;;;4950922;28;20244;-87
2021/09/10 07:42:50;;;;;;;24.27;14.32;;;24.10;99.90;;;;;;4950440;28;20221;-88
2021/09/10 07:45:16;;;;;;;22.20;14.15;;;24.10;99.90;;;;;;4949901;28;20740;-88
2021/09/10 07:47:42;;;;;;;24.83;14.38;;;24.10;99.90;;;;;;4965747;28;20211;-87
2021/09/10 07:50:09;;;;;;;23.58;14.38;;;24.30;99.90;;;;;;4932793;28;20232;-93
2021/09/10 07:52:35;;;;;;;25.23;14.10;;;24.10;99.90;;;;;;4948320;28;20212;-87
2021/09/10 07:55:01;;;;;;;23.90;14.60;;;24.50;99.90;;;;;;4962974;28;20787;-90
2021/09/10 07:57:27;;;;;;;21.55;13.40;;;25.10;99.90;;;;;;4948120;28;20697;-89
2021/09/10 07:59:56;;;;;;;26.08;14.95;;;25.60;99.90;;;;;;4948758;28;20212;-88
2021/09/10 08:02:26;;;;;;;25.35;14.63;;;25.80;99.90;;;;;;4917807;28;20247;-88
2021/09/10 08:04:52;;;;;;;22.25;13.88;;;26.00;99.90;;;;;;4966349;28;20814;-87
2021/09/10 08:07:18;;;;;;;24.75;14.25;;;25.90;99.90;;;;;;4949678;28;20260;-87
2021/09/10 08:09:44;;;;;;;22.40;13.68;;;25.90;99.90;;;;;;4950017;28;20263;-89
2021/09/10 08:12:10;;;;;;;29.08;15.13;;;25.80;99.90;;;;;;4950040;28;20631;-87
2021/09/10 08:14:36;;;;;;;29.50;16.52;;;25.90;99.90;;;;;;4968190;28;21176;-88
2021/09/10 08:17:01;;;;;;;24.95;15.00;;;26.00;99.90;;;;;;4949716;28;20580;-89
2021/09/10 08:19:27;;;;;;;28.58;14.65;;;26.10;99.90;;;;;;4950846;28;20248;-90
2021/09/10 08:21:53;;;;;;;25.58;15.13;;;25.90;99.90;;;;;;4951502;28;20670;-89
2021/09/10 08:24:19;;;;;;;25.60;15.82;;;25.40;99.90;;;;;;4950159;28;20255;-89
2021/09/10 08:26:45;;;;;;;27.23;15.15;;;24.60;99.90;;;;;;4950463;28;20227;-88
2021/09/10 08:29:10;;;;;;;34.78;17.95;;;24.40;99.90;;;;;;4950638;28;20231;-86
2021/09/10 08:31:36;;;;;;;27.95;17.63;;;24.00;99.90;;;;;;4965711;28;20225;-91
2021/09/10 08:34:04;;;;;;;32.55;18.00;;;23.70;99.90;;;;;;4964744;28;20215;-85
2021/09/10 08:36:31;;;;;;;31.23;18.88;;;23.30;99.90;;;;;;4949796;28;20267;-88
2021/09/10 08:38:57;;;;;;;30.10;16.67;;;23.00;99.90;;;;;;4951019;28;20204;-88
2021/09/10 08:41:26;;;;;;;32.38;19.27;;;23.00;99.90;;;;;;4949848;28;20231;-87
2021/09/10 08:43:51;;;;;;;33.78;19.08;;;22.90;99.90;;;;;;4949286;28;20224;-87
2021/09/10 08:46:18;;;;;;;31.80;19.27;;;22.60;99.90;;;;;;4950029;28;20568;-88
2021/09/10 08:48:47;;;;;;;32.40;19.97;;;22.70;99.90;;;;;;4949516;28;20692;-88
2021/09/10 08:51:16;;;;;;;35.73;19.43;;;22.70;99.90;;;;;;4949683;28;20220;-86
2021/09/10 08:53:42;;;;;;;40.03;20.23;;;22.60;99.90;;;;;;4966909;28;20208;-87
2021/09/10 08:56:08;;;;;;;36.77;19.27;;;22.50;99.90;;;;;;4949315;28;20220;-89
2021/09/10 08:58:34;;;;;;;37.10;20.03;;;22.50;99.90;;;;;;4949782;28;20217;-90
2021/09/10 09:01:00;;;;;;;37.07;19.00;;;22.50;99.90;;;;;;4949900;28;20225;-89
2021/09/10 09:03:30;;;;;;;42.85;21.67;;;22.50;99.90;;;;;;4965534;28;20231;-88
2021/09/10 09:05:56;;;;;;;40.17;21.57;;;22.40;99.90;;;;;;4949768;28;20212;-89
2021/09/10 09:08:22;;;;;;;44.87;23.23;;;22.30;99.90;;;;;;4965323;28;20228;-87
2021/09/10 09:11:06;;;;;;;41.00;21.93;;;22.00;99.90;;;;;;4965753;28;20259;-88
2021/09/10 09:13:41;;;;;;;42.23;21.83;;;21.80;99.90;;;;;;4948791;28;20228;-90
2021/09/10 09:16:13;;;;;;;46.17;21.90;;;21.70;99.90;;;;;;4965041;28;20275;-87
2021/09/10 09:18:50;;;;;;;42.53;20.80;;;21.60;99.90;;;;;;4964588;28;20243;-88
2021/09/10 09:21:21;;;;;;;44.60;21.77;;;21.40;99.90;;;;;;4948435;28;20188;-87
2021/09/10 09:23:46;;;;;;;46.77;22.77;;;21.20;99.90;;;;;;4965070;28;20779;-91
2021/09/10 09:26:14;;;;;;;52.93;23.53;;;21.20;99.90;;;;;;4947219;28;20244;-88
2021/09/10 09:28:40;;;;;;;42.27;21.07;;;21.20;99.90;;;;;;4948192;28;20221;-86
2021/09/10 09:31:10;;;;;;;48.33;23.50;;;21.40;99.90;;;;;;4947836;28;20227;-88
2021/09/10 09:33:40;;;;;;;50.10;24.83;;;21.50;99.90;;;;;;4948772;28;20208;-88
2021/09/10 09:36:09;;;;;;;53.57;24.70;;;21.60;99.90;;;;;;4965198;28;21385;-88
2021/09/10 09:38:37;;;;;;;47.27;24.70;;;21.60;99.90;;;;;;4932648;28;20208;-88
2021/09/10 09:41:12;;;;;;;48.37;26.23;;;21.70;99.90;;;;;;4948603;28;20230;-86
2021/09/10 09:43:43;;;;;;;47.13;24.57;;;21.80;99.90;;;;;;4963997;28;20270;-83
2021/09/10 09:46:13;;;;;;;49.43;24.03;;;21.80;99.90;;;;;;4964655;28;20596;-84
2021/09/10 09:48:42;;;;;;;56.83;28.57;;;21.90;99.90;;;;;;4949363;28;20230;-85
2021/09/10 09:51:10;;;;;;;55.07;25.03;;;22.00;99.90;;;;;;4949455;28;20185;-86
2021/09/10 09:53:39;;;;;;;52.60;26.27;;;22.20;99.90;;;;;;4949477;28;20682;-86
2021/09/10 09:56:08;;;;;;;56.47;26.57;;;22.20;99.90;;;;;;4939782;28;20320;-85
2021/09/10 09:58:37;;;;;;;55.70;25.23;;;22.10;99.90;;;;;;4944214;28;20231;-85
2021/09/10 10:01:05;;;;;;;56.20;27.30;;;22.00;99.90;;;;;;4964510;28;20275;-86
2021/09/10 10:03:31;;;;;;;62.37;26.60;;;22.00;99.90;;;;;;4948674;28;20335;-87
2021/09/10 10:06:02;;;;;;;64.97;27.90;;;21.90;99.90;;;;;;4949353;28;20227;-86
2021/09/10 10:08:40;;;;;;;54.67;25.13;;;21.90;99.90;;;;;;4949460;28;20244;-85
2021/09/10 10:11:21;;;;;;;48.57;24.27;;;21.90;99.90;;;;;;4957117;28;20215;-84
2021/09/10 10:13:54;;;;;;;48.60;24.43;;;22.00;99.90;;;;;;4939573;28;20220;-87
2021/09/10 10:16:41;;;;;;;54.13;25.40;;;22.20;99.90;;;;;;4943419;28;20228;-84
2021/09/10 10:19:27;;;;;;;52.00;24.20;;;22.40;99.90;;;;;;4949002;28;20525;-86
2021/09/10 10:21:56;;;;;;;50.80;25.23;;;22.50;99.90;;;;;;4948809;28;20216;-84
2021/09/10 10:24:51;;;;;;;45.37;22.20;;;23.10;99.90;;;;;;4949286;28;20181;-87
2021/09/10 10:27:35;;;;;;;50.37;22.83;;;23.60;99.90;;;;;;4963638;28;20632;-84
2021/09/10 10:30:19;;;;;;;47.50;22.23;;;23.80;99.90;;;;;;4965351;28;20239;-85
2021/09/10 10:32:50;;;;;;;48.65;23.67;;;24.00;99.90;;;;;;4966888;28;20244;-84
2021/09/10 10:35:39;;;;;;;41.72;22.15;;;24.00;99.90;;;;;;4948902;28;20601;-85
2021/09/10 10:38:07;;;;;;;41.45;22.95;;;24.00;99.90;;;;;;4965187;28;20221;-87
2021/09/10 10:40:50;;;;;;;44.80;22.17;;;23.80;99.90;;;;;;4952996;28;20224;-86
2021/09/10 10:43:22;;;;;;;40.28;21.70;;;23.60;99.90;;;;;;4950476;28;20251;-89
2021/09/10 10:45:48;;;;;;;33.78;19.33;;;23.80;99.90;;;;;;4947560;28;20267;-85
2021/09/10 10:48:32;;;;;;;38.30;20.13;;;24.10;99.90;;;;;;4948324;28;20287;-84
2021/09/10 10:51:24;;;;;;;43.05;21.95;;;25.00;99.90;;;;;;4948593;28;20295;-86
2021/09/10 10:53:53;;;;;;;42.53;21.70;;;25.60;99.90;;;;;;4966147;28;20221;-87
2021/09/10 10:56:21;;;;;;;36.92;18.90;;;25.60;99.90;;;;;;4966821;28;20232;-87
2021/09/10 11:02:16;;;;;;;33.25;16.92;;;25.40;99.90;;;;;;4958657;28;20220;-89
2021/09/10 11:04:58;;;;;;;33.97;17.02;;;25.20;99.90;;;;;;4968939;28;20231;-87
2021/09/10 11:07:26;;;;;;;32.17;16.55;;;24.90;99.90;;;;;;4951793;28;20231;-90
2021/09/10 11:10:16;;;;;;;32.28;15.98;;;24.90;99.90;;;;;;4967809;28;20351;-87
2021/09/10 11:12:46;;;;;;;27.85;15.77;;;25.00;99.90;;;;;;4968957;28;20216;-86
2021/09/10 11:15:29;;;;;;;28.98;15.38;;;24.80;99.90;;;;;;4968363;28;20868;-87
2021/09/10 11:18:09;;;;;;;30.23;15.82;;;24.60;99.90;;;;;;4937181;28;20204;-88
2021/09/10 11:20:56;;;;;;;28.17;14.68;;;24.30;99.90;;;;;;4953185;28;20266;-89
2021/09/10 11:23:28;;;;;;;31.10;15.68;;;23.90;99.90;;;;;;4941436;28;20220;-90
2021/09/10 11:25:56;;;;;;;30.35;16.05;;;23.60;99.90;;;;;;4958157;28;20738;-88
2021/09/10 11:28:25;;;;;;;34.75;17.35;;;23.60;99.90;;;;;;4957574;28;20262;-89
2021/09/10 11:30:52;;;;;;;32.22;14.70;;;23.80;99.90;;;;;;4943830;28;20894;-89
2021/09/10 11:33:19;;;;;;;30.45;15.57;;;24.20;99.90;;;;;;4951888;28;20212;-88
2021/09/10 11:35:48;;;;;;;28.40;14.55;;;24.80;99.90;;;;;;4952497;28;20203;-89
2021/09/10 11:38:19;;;;;;;29.48;15.73;;;25.20;99.90;;;;;;4951489;28;20220;-88
2021/09/10 11:40:52;;;;;;;26.75;13.57;;;25.70;99.90;;;;;;4951431;28;20287;-88
2021/09/10 11:43:21;;;;;;;24.50;13.52;;;26.00;99.90;;;;;;4967322;28;20718;-87
2021/09/10 11:45:54;;;;;;;19.67;11.15;;;26.40;99.90;;;;;;4951358;28;20229;-87
2021/09/10 11:48:26;;;;;;;20.60;12.02;;;26.70;99.90;;;;;;4951116;28;20197;-87
2021/09/10 11:50:58;;;;;;;23.90;11.82;;;26.90;99.90;;;;;;4967602;28;20243;-88
2021/09/10 11:53:57;;;;;;;25.85;12.90;;;27.00;99.90;;;;;;4951673;28;20223;-86
2021/09/10 11:56:34;;;;;;;24.75;12.80;;;28.00;99.90;;;;;;4955378;28;20228;-86
2021/09/10 11:59:00;;;;;;;28.85;13.27;;;28.70;99.90;;;;;;4966648;28;20566;-86
2021/09/10 12:01:38;;;;;;;30.35;14.13;;;29.00;99.90;;;;;;4950967;28;20235;-90
2021/09/10 12:04:24;;;;;;;22.45;13.00;;;29.50;99.90;;;;;;4951117;28;20220;-90
2021/09/10 12:06:53;;;;;;;21.45;11.93;;;29.00;99.90;;;;;;4951557;28;20315;-87
2021/09/10 12:09:21;;;;;;;20.10;12.05;;;28.70;99.90;;;;;;4951995;28;20180;-87
2021/09/10 12:12:05;;;;;;;22.92;12.65;;;28.30;99.90;;;;;;4936876;28;20189;-89
2021/09/10 12:14:47;;;;;;;20.38;11.15;;;28.10;99.90;;;;;;4968625;28;20254;-91
2021/09/10 12:17:23;;;;;;;19.15;10.95;;;27.80;99.90;;;;;;4968493;28;20259;-88
2021/09/10 12:20:05;;;;;;;19.27;9.95;;;27.40;99.90;;;;;;4952695;28;20239;-88
2021/09/10 12:22:37;;;;;;;19.85;10.85;;;27.40;99.90;;;;;;4967918;28;20320;-87
2021/09/10 12:25:22;;;;;;;26.48;13.43;;;26.30;99.90;;;;;;4966323;28;20263;-86
2021/09/10 12:27:50;;;;;;;22.63;12.48;;;26.40;99.90;;;;;;4951325;28;20236;-87
2021/09/10 12:30:17;;;;;;;21.73;11.38;;;26.50;99.90;;;;;;4966284;28;20327;-88
2021/09/10 12:32:43;;;;;;;22.63;13.10;;;26.50;99.90;;;;;;4968203;28;20223;-86
2021/09/10 12:35:09;;;;;;;28.90;12.90;;;26.30;99.90;;;;;;4967005;28;20216;-86
2021/09/10 12:37:35;;;;;;;27.20;13.00;;;26.10;99.90;;;;;;4951140;28;20216;-89